Terminal Aerodrome Forecast
Issued by NWS

Home | Current Version | Previous Version | Text Only | Print | Product List | Glossary On
Versions: 1 2 3 4 5 6 7 8 9 10 11 12 13 14 15 16 17 18 19 20 21 22 23 24 25
000
FTUS46 KSEW 271100
TAFSEA
TAF
KSEA 271136Z 2712/2818 16006KT P6SM SCT010 BKN015 OVC025
      TEMPO 2712/2714 3SM BR
     FM271500 19006KT P6SM SCT015 BKN025 OVC035
     FM271900 23006KT P6SM SCT025 OVC040
     FM272200 33006KT P6SM SCT100
     FM281000 VRB03KT P6SM SCT060 BKN120
     FM281400 19010KT P6SM -RA OVC040=

USA.gov is the U.S. government's official web portal to all federal, state and local government web resources and services.